F/V Matmaco — FVNS — position and weather

sailwx.info

Track history (hours):
 
Tides and Currents Weather Stations Pressure Air Temp Water Temp Dewpoint Dewpoint Depression Visibility Wind Speed Wind Dir Waves Ship Positions

F/V Matmaco

Last reported at 2014-Sep-18 00:32 UTC. Time now 2014-Sep-18 09:45 UTC.
Position N 47°16' W 002°37'.

Length 20 m.

Type: Other ship. MMSI: 228194000.

Date/timePositionNaut miles runAvg speedWind from/ knotsBaromVisibWave heightAir tempDewpointWater temp
2014-Sep-18 00:32N 47°16' W 002°37'  
2014-Sep-11 02:33N 46°19' W 001°58'9 9.4
2014-Sep-11 01:33N 46°26' W 001°49'4 3.6
2014-Sep-11 00:34N 46°30' W 001°47'0 0.0
2014-Sep-10 23:34N 46°30' W 001°47'0 0.0
2014-Sep-10 22:34N 46°30' W 001°47'0 0.0
2014-Sep-10 21:34N 46°30' W 001°47'0 0.0
2014-Sep-10 20:34N 46°30' W 001°47'7 7.4
2014-Sep-10 19:34N 46°27' W 001°58'10 9.6
2014-Sep-10 18:33N 46°25' W 002°11'  
Track history (hours):
 
Tides and Currents Weather Stations Pressure Air Temp Water Temp Dewpoint Dewpoint Depression Visibility Wind Speed Wind Dir Waves Ship Positions

F/V Matmaco

Last reported at 2014-Sep-18 00:32 UTC. Time now 2014-Sep-18 09:45 UTC.
Position N 47°16' W 002°37'.

Length 20 m.

Type: Other ship. MMSI: 228194000.

Date/timePositionNaut miles runAvg speedWind from/ knotsBaromVisibWave heightAir tempDewpointWater temp
2014-Sep-18 00:32N 47°16' W 002°37'  
2014-Sep-11 02:33N 46°19' W 001°58'9 9.4
2014-Sep-11 01:33N 46°26' W 001°49'4 3.6
2014-Sep-11 00:34N 46°30' W 001°47'0 0.0
2014-Sep-10 23:34N 46°30' W 001°47'0 0.0
2014-Sep-10 22:34N 46°30' W 001°47'0 0.0
2014-Sep-10 21:34N 46°30' W 001°47'0 0.0
2014-Sep-10 20:34N 46°30' W 001°47'7 7.4
2014-Sep-10 19:34N 46°27' W 001°58'10 9.6
2014-Sep-10 18:33N 46°25' W 002°11'  

Dump ship's entire track history